Time;durP1;ratioP1;P1;durP2;ratioP2;P2;SDS_P1;SDS_P2;PMS_P1;PMS_P2;Temp;Humidity;BMP_temperature;BMP_pressure;BME280_temperature;BME280_humidity;BME280_pressure;Samples;Min_cycle;Max_cycle;Signal;HPM_P1;HPM_P2
2023/07/20 00:00:03;;;;;;;5.05;3.13;;;;;;;13.86;100.00;100463.78;5025433;28;20050;-64
2023/07/20 00:02:30;;;;;;;10.43;3.47;;;;;;;13.76;100.00;100464.06;5023715;28;20093;-63
2023/07/20 00:04:57;;;;;;;7.20;2.90;;;;;;;13.84;100.00;100465.84;5023611;28;20521;-64
2023/07/20 00:07:24;;;;;;;5.50;3.30;;;;;;;13.98;100.00;100473.09;5024778;28;20050;-64
2023/07/20 00:09:51;;;;;;;8.27;3.15;;;;;;;13.99;100.00;100471.22;5023590;28;20053;-64
2023/07/20 00:12:17;;;;;;;6.05;3.10;;;;;;;13.83;100.00;100475.78;5026067;28;20056;-64
2023/07/20 00:14:44;;;;;;;6.40;3.35;;;;;;;13.66;100.00;100468.88;5025558;28;20045;-64
2023/07/20 00:17:11;;;;;;;7.38;3.90;;;;;;;13.56;100.00;100463.78;5025013;28;20108;-63
2023/07/20 00:19:37;;;;;;;6.13;3.88;;;;;;;13.53;100.00;100464.16;5025335;28;20521;-64
2023/07/20 00:22:05;;;;;;;6.80;3.88;;;;;;;13.52;100.00;100472.41;5026437;28;20042;-64
2023/07/20 00:24:32;;;;;;;5.72;3.92;;;;;;;13.51;100.00;100462.66;5025584;28;20042;-65
2023/07/20 00:27:00;;;;;;;5.40;3.78;;;;;;;13.47;100.00;100466.75;5026604;28;20042;-64
2023/07/20 00:29:27;;;;;;;8.25;4.50;;;;;;;13.48;100.00;100460.34;5026867;28;20072;-64
2023/07/20 00:31:53;;;;;;;6.32;4.13;;;;;;;13.45;100.00;100466.09;5042041;28;20059;-63
2023/07/20 00:34:21;;;;;;;4.90;3.83;;;;;;;13.44;100.00;100469.81;5047145;28;20075;-63
2023/07/20 00:36:49;;;;;;;7.28;4.07;;;;;;;13.41;100.00;100470.19;5047179;28;20080;-64
2023/07/20 00:39:15;;;;;;;6.57;4.13;;;;;;;13.40;100.00;100471.22;5046462;28;20124;-64
2023/07/20 00:41:42;;;;;;;5.53;4.25;;;;;;;13.41;100.00;100467.50;5045859;28;20045;-64
2023/07/20 00:44:09;;;;;;;10.15;3.90;;;;;;;13.37;100.00;100460.81;5045352;28;20076;-64
2023/07/20 00:46:35;;;;;;;10.40;4.63;;;;;;;13.43;100.00;100468.16;5044584;28;20465;-64
2023/07/20 00:49:02;;;;;;;5.70;4.15;;;;;;;13.40;100.00;100468.53;5045411;28;20041;-63
2023/07/20 00:51:29;;;;;;;7.53;4.82;;;;;;;13.33;100.00;100466.56;5044930;28;20049;-64
2023/07/20 00:53:56;;;;;;;6.07;4.07;;;;;;;13.32;100.00;100467.59;5044791;28;20057;-64
2023/07/20 00:56:23;;;;;;;5.18;4.22;;;;;;;13.32;100.00;100466.75;5043578;28;20097;-64
2023/07/20 00:58:50;;;;;;;6.45;4.65;;;;;;;13.24;100.00;100456.06;5043349;28;20046;-64
2023/07/20 01:01:17;;;;;;;8.25;4.45;;;;;;;13.23;100.00;100463.31;5042319;28;20099;-64
2023/07/20 01:03:44;;;;;;;7.13;4.65;;;;;;;13.26;100.00;100456.72;5042426;28;20052;-64
2023/07/20 01:09:59;;;;;;;4.90;2.47;;;;;;;13.34;100.00;100470.94;5042842;28;20041;-64
2023/07/20 01:12:32;;;;;;;4.72;2.80;;;;;;;13.33;100.00;100461.19;5040704;28;20091;-63
2023/07/20 01:14:59;;;;;;;14.80;4.88;;;;;;;13.44;100.00;100477.91;5040244;28;20076;-64
2023/07/20 01:17:27;;;;;;;8.38;4.63;;;;;;;13.46;100.00;100473.19;5041938;28;20056;-64
2023/07/20 01:19:54;;;;;;;6.80;4.47;;;;;;;13.41;100.00;100471.03;5039654;28;20050;-63
2023/07/20 01:22:38;;;;;;;10.52;4.63;;;;;;;13.38;100.00;100470.56;5041423;28;20111;-63
2023/07/20 01:25:53;;;;;;;9.00;4.65;;;;;;;13.37;100.00;100474.28;5040505;28;20068;-63
2023/07/20 01:28:35;;;;;;;7.80;4.60;;;;;;;13.39;100.00;100466.84;5039900;28;20045;-63
2023/07/20 01:31:24;;;;;;;10.30;5.10;;;;;;;13.33;100.00;100474.66;5031550;28;20081;-63
2023/07/20 01:33:56;;;;;;;12.10;4.47;;;;;;;13.30;100.00;100472.31;5021535;28;20056;-64
2023/07/20 01:36:28;;;;;;;7.32;5.32;;;;;;;13.38;100.00;100466.00;5021319;28;20443;-63
2023/07/20 01:38:56;;;;;;;11.55;5.15;;;;;;;13.42;100.00;100471.84;5021383;28;20046;-63
2023/07/20 01:41:23;;;;;;;6.18;5.03;;;;;;;13.39;100.00;100466.84;5021121;28;20046;-65
2023/07/20 01:43:50;;;;;;;9.15;5.13;;;;;;;13.33;100.00;100463.88;5021802;28;20053;-65
2023/07/20 01:46:17;;;;;;;5.30;4.70;;;;;;;13.28;100.00;100466.28;5022443;28;20065;-64
2023/07/20 01:48:43;;;;;;;6.93;3.00;;;;;;;13.26;100.00;100471.00;5023060;28;20132;-64
2023/07/20 01:51:11;;;;;;;10.15;5.22;;;;;;;13.23;100.00;100460.59;5022812;28;20050;-64
2023/07/20 01:53:38;;;;;;;7.80;5.00;;;;;;;13.19;100.00;100464.69;5022411;28;20052;-63
2023/07/20 01:56:05;;;;;;;9.20;5.13;;;;;;;13.22;100.00;100463.50;5022418;28;20053;-64
2023/07/20 01:58:32;;;;;;;13.73;4.72;;;;;;;13.22;100.00;100460.81;5021598;28;20041;-63
2023/07/20 02:00:58;;;;;;;8.43;5.60;;;;;;;13.18;100.00;100464.84;5021394;28;20066;-64
2023/07/20 02:03:26;;;;;;;8.75;5.55;;;;;;;13.17;100.00;100458.63;5020336;28;20070;-62
2023/07/20 02:05:53;;;;;;;6.93;4.97;;;;;;;13.21;100.00;100464.50;5020214;28;20111;-63
2023/07/20 02:08:19;;;;;;;7.32;5.03;;;;;;;13.23;100.00;100460.59;5020717;28;20424;-63
2023/07/20 02:10:47;;;;;;;7.78;4.18;;;;;;;13.22;100.00;100472.41;5021117;28;20104;-63
2023/07/20 02:13:14;;;;;;;6.07;4.88;;;;;;;13.18;100.00;100465.72;5021470;28;20057;-62
2023/07/20 02:15:42;;;;;;;9.68;4.88;;;;;;;13.12;100.00;100466.44;5020123;28;20053;-63
2023/07/20 02:18:09;;;;;;;8.20;5.22;;;;;;;12.98;100.00;100464.56;5018457;28;20057;-63
2023/07/20 02:20:35;;;;;;;8.43;4.47;;;;;;;12.90;100.00;100460.06;5020171;28;20046;-63
2023/07/20 02:23:02;;;;;;;10.45;5.20;;;;;;;12.88;100.00;100462.97;5021327;28;20050;-64
2023/07/20 02:25:29;;;;;;;9.40;5.03;;;;;;;12.86;100.00;100462.28;5022717;28;20045;-63
2023/07/20 02:27:56;;;;;;;9.65;5.18;;;;;;;12.84;100.00;100458.13;5024959;28;20053;-63
2023/07/20 02:30:23;;;;;;;5.30;4.25;;;;;;;12.97;100.00;100457.50;5026167;28;20050;-63
2023/07/20 02:32:50;;;;;;;5.95;3.53;;;;;;;13.01;100.00;100469.59;5044714;28;20053;-63
2023/07/20 02:35:17;;;;;;;6.03;3.00;;;;;;;13.05;100.00;100465.50;5047308;28;20049;-63
2023/07/20 02:37:44;;;;;;;5.32;2.88;;;;;;;13.15;100.00;100460.69;5048040;28;20049;-63
2023/07/20 02:40:11;;;;;;;6.57;4.53;;;;;;;13.09;100.00;100467.66;5046947;28;20060;-63
2023/07/20 02:42:38;;;;;;;7.60;3.28;;;;;;;13.14;100.00;100469.78;5045505;28;20041;-63
2023/07/20 02:45:05;;;;;;;3.03;2.70;;;;;;;13.24;100.00;100467.66;5045755;28;22198;-64
2023/07/20 02:47:33;;;;;;;8.13;4.35;;;;;;;13.18;100.00;100471.09;5046553;28;20049;-64
2023/07/20 02:49:59;;;;;;;5.80;3.97;;;;;;;13.19;100.00;100480.03;5045960;28;20374;-64
2023/07/20 02:52:26;;;;;;;7.47;3.75;;;;;;;13.35;100.00;100482.53;5046675;28;20056;-64
2023/07/20 02:54:52;;;;;;;5.85;4.28;;;;;;;13.40;100.00;100485.53;5047249;28;20414;-64
2023/07/20 02:57:19;;;;;;;9.13;3.55;;;;;;;13.58;100.00;100486.00;5045950;28;20072;-64
2023/07/20 02:59:46;;;;;;;8.95;4.60;;;;;;;13.61;100.00;100487.47;5046393;28;20050;-64
2023/07/20 03:02:12;;;;;;;6.15;5.13;;;;;;;13.51;100.00;100493.16;5047072;28;20072;-64
2023/07/20 03:04:39;;;;;;;6.03;3.90;;;;;;;13.63;100.00;100496.25;5031811;28;20053;-64
2023/07/20 03:07:06;;;;;;;8.55;5.10;;;;;;;13.72;100.00;100500.50;5027491;28;20072;-64
2023/07/20 03:09:33;;;;;;;7.68;5.60;;;;;;;13.76;100.00;100496.44;5027117;28;20069;-64
2023/07/20 03:12:00;;;;;;;5.55;3.78;;;;;;;13.82;100.00;100505.63;5027744;28;20096;-64
2023/07/20 03:14:27;;;;;;;12.75;5.13;;;;;;;13.73;100.00;100496.75;5028780;28;20061;-64
2023/07/20 03:16:54;;;;;;;12.80;4.50;;;;;;;13.73;100.00;100506.72;5027945;28;20414;-64
2023/07/20 03:19:21;;;;;;;8.05;4.10;;;;;;;13.85;100.00;100499.03;5029283;28;20053;-65
2023/07/20 03:21:48;;;;;;;9.30;3.60;;;;;;;13.93;100.00;100505.16;5028318;28;20081;-64
2023/07/20 03:24:15;;;;;;;9.30;4.55;;;;;;;14.07;100.00;100503.47;5027895;28;20053;-64
2023/07/20 03:26:41;;;;;;;7.10;4.72;;;;;;;14.02;100.00;100497.81;5027437;28;20045;-64
2023/07/20 03:29:08;;;;;;;12.98;4.15;;;;;;;13.87;100.00;100499.69;5027476;28;20073;-64
2023/07/20 03:31:35;;;;;;;8.68;5.32;;;;;;;13.83;100.00;100502.75;5040891;28;20301;-64
2023/07/20 03:34:01;;;;;;;12.32;5.68;;;;;;;13.86;100.00;100504.25;5047578;28;20410;-64
2023/07/20 03:36:28;;;;;;;17.48;6.97;;;;;;;13.74;100.00;100501.16;5048226;28;20046;-64
2023/07/20 03:38:54;;;;;;;6.90;4.25;;;;;;;13.74;100.00;100511.09;5046843;28;20119;-64
2023/07/20 03:41:21;;;;;;;8.35;6.53;;;;;;;13.87;100.00;100511.28;5045867;28;20045;-64
2023/07/20 03:43:48;;;;;;;13.02;5.68;;;;;;;13.89;100.00;100511.13;5035294;28;20108;-64
2023/07/20 03:46:15;;;;;;;5.28;4.47;;;;;;;13.93;100.00;100517.81;5025878;28;20128;-64
2023/07/20 03:48:42;;;;;;;7.60;4.88;;;;;;;13.87;100.00;100515.84;5025313;28;20069;-64
2023/07/20 03:51:08;;;;;;;7.38;4.47;;;;;;;14.05;100.00;100522.56;5026837;28;20104;-64
2023/07/20 03:53:35;;;;;;;8.70;5.50;;;;;;;13.99;100.00;100517.06;5026922;28;20047;-64
2023/07/20 03:56:01;;;;;;;13.43;6.25;;;;;;;13.89;100.00;100517.34;5025897;28;20058;-64
2023/07/20 03:58:29;;;;;;;9.38;6.57;;;;;;;13.76;100.00;100519.84;5026331;28;20076;-64
2023/07/20 04:00:57;;;;;;;8.60;4.40;;;;;;;13.89;100.00;100522.75;5026692;28;20068;-64
2023/07/20 04:03:24;;;;;;;11.00;5.97;;;;;;;14.08;100.00;100521.34;5027466;28;20050;-64
2023/07/20 04:05:56;;;;;;;7.95;4.30;;;;;;;14.09;100.00;100525.72;5028782;28;20054;-64
2023/07/20 04:08:24;;;;;;;6.75;5.13;;;;;;;14.10;100.00;100524.69;5027408;28;20046;-63
2023/07/20 04:10:51;;;;;;;4.57;3.95;;;;;;;14.18;100.00;100521.84;5025604;28;20058;-64
2023/07/20 04:13:19;;;;;;;8.93;6.30;;;;;;;14.02;100.00;100522.09;5026493;28;20046;-63
2023/07/20 04:15:45;;;;;;;10.50;6.22;;;;;;;14.00;100.00;100524.13;5025767;28;20072;-64
2023/07/20 04:18:12;;;;;;;7.68;5.15;;;;;;;14.09;100.00;100520.31;5026136;28;20046;-63
2023/07/20 04:20:39;;;;;;;9.40;4.30;;;;;;;14.22;100.00;100527.72;5025332;28;20130;-64
2023/07/20 04:23:05;;;;;;;10.38;4.78;;;;;;;14.34;100.00;100528.09;5026194;28;20049;-63
2023/07/20 04:25:38;;;;;;;12.52;5.43;;;;;;;14.23;100.00;100522.16;5025741;28;20104;-63
2023/07/20 04:28:09;;;;;;;21.42;14.00;;;;;;;13.99;100.00;100527.84;5025049;28;20057;-64
2023/07/20 04:30:38;;;;;;;9.33;4.63;;;;;;;14.06;100.00;100535.00;5030988;28;20046;-63
2023/07/20 04:33:05;;;;;;;10.95;5.15;;;;;;;14.09;100.00;100528.41;5046974;28;20061;-63
2023/07/20 04:35:51;;;;;;;11.57;6.90;;;;;;;14.00;100.00;100535.75;5047684;28;20056;-64
2023/07/20 04:38:18;;;;;;;5.43;4.43;;;;;;;14.15;100.00;100535.75;5047577;28;20045;-64
2023/07/20 04:40:49;;;;;;;9.30;5.78;;;;;;;14.20;100.00;100544.09;5047189;28;20064;-64
2023/07/20 04:43:17;;;;;;;4.93;3.53;;;;;;;14.12;100.00;100538.81;5048819;28;20046;-64
2023/07/20 04:45:44;;;;;;;12.63;7.22;;;;;;;14.08;100.00;100536.66;5048993;28;20053;-64
2023/07/20 04:48:13;;;;;;;18.48;6.82;;;;;;;14.02;100.00;100538.28;5049514;28;20041;-64
2023/07/20 04:50:44;;;;;;;9.93;7.20;;;;;;;13.87;100.00;100532.88;5048671;28;20041;-63
2023/07/20 04:53:14;;;;;;;14.20;7.07;;;;;;;13.87;100.00;100540.13;5049199;28;20048;-64
2023/07/20 04:55:50;;;;;;;9.52;5.97;;;;;;;13.78;100.00;100528.63;5047107;28;20045;-64
2023/07/20 04:58:18;;;;;;;10.15;6.60;;;;;;;13.91;100.00;100531.50;5047222;28;20052;-64
2023/07/20 05:00:46;;;;;;;11.18;6.43;;;;;;;13.81;100.00;100534.47;5048148;28;20045;-63
2023/07/20 05:03:12;;;;;;;15.30;6.53;;;;;;;13.92;100.00;100537.72;5048619;28;20045;-64
2023/07/20 05:05:39;;;;;;;14.38;6.32;;;;;;;14.00;100.00;100545.72;5046588;28;20075;-63
2023/07/20 05:08:06;;;;;;;19.25;5.75;;;;;;;14.13;100.00;100543.19;5049167;28;20109;-64
2023/07/20 05:10:32;;;;;;;16.60;6.75;;;;;;;14.17;100.00;100549.03;5048715;28;20042;-64
2023/07/20 05:13:00;;;;;;;7.25;4.60;;;;;;;14.37;100.00;100541.19;5048423;28;20057;-63
2023/07/20 05:15:26;;;;;;;14.30;4.65;;;;;;;14.57;100.00;100549.53;5047935;28;20049;-64
2023/07/20 05:17:53;;;;;;;9.98;6.60;;;;;;;14.45;100.00;100544.59;5048077;28;20045;-65
2023/07/20 05:20:20;;;;;;;7.78;4.53;;;;;;;14.56;100.00;100548.66;5045667;28;20041;-64
2023/07/20 05:22:48;;;;;;;11.85;5.47;;;;;;;14.48;100.00;100549.63;5044277;28;20045;-64
2023/07/20 05:25:18;;;;;;;8.00;5.07;;;;;;;14.38;100.00;100546.41;5045646;28;20048;-63
2023/07/20 05:27:46;;;;;;;8.25;6.25;;;;;;;14.24;100.00;100550.78;5046363;28;20077;-64
2023/07/20 05:30:12;;;;;;;10.32;5.38;;;;;;;14.41;100.00;100554.13;5044395;28;20101;-63
2023/07/20 05:32:39;;;;;;;7.10;3.92;;;;;;;14.67;100.00;100553.59;5025013;28;20046;-63
2023/07/20 05:35:06;;;;;;;8.27;4.05;;;;;;;14.85;100.00;100553.19;5024502;28;20056;-64
2023/07/20 05:37:33;;;;;;;6.07;3.90;;;;;;;14.70;100.00;100550.50;5024000;28;20049;-64
2023/07/20 05:39:59;;;;;;;13.07;5.32;;;;;;;14.89;100.00;100556.34;5024345;28;20050;-64
2023/07/20 05:42:27;;;;;;;9.80;5.53;;;;;;;15.00;100.00;100555.81;5025417;28;20046;-64
2023/07/20 05:44:55;;;;;;;11.43;4.60;;;;;;;15.16;100.00;100563.66;5027683;28;20480;-64
2023/07/20 05:47:21;;;;;;;5.88;3.70;;;;;;;15.33;100.00;100574.16;5028618;28;20073;-64
2023/07/20 05:49:48;;;;;;;8.80;4.40;;;;;;;15.20;100.00;100572.22;5027648;28;20042;-63
2023/07/20 05:52:15;;;;;;;10.13;3.50;;;;;;;15.15;100.00;100580.88;5028354;28;20464;-63
2023/07/20 05:54:41;;;;;;;16.77;5.82;;;;;;;14.85;100.00;100571.25;5028601;28;20593;-64
2023/07/20 05:57:10;;;;;;;10.43;4.07;;;;;;;14.95;100.00;100566.38;5028465;28;20046;-63
2023/07/20 05:59:38;;;;;;;11.27;6.25;;;;;;;14.71;100.00;100564.84;5027999;28;20053;-62
2023/07/20 06:02:07;;;;;;;7.43;3.47;;;;;;;14.84;100.00;100569.56;5028674;28;20096;-63
2023/07/20 06:04:34;;;;;;;9.23;3.83;;;;;;;14.99;100.00;100568.50;5027069;28;20053;-63
2023/07/20 06:07:01;;;;;;;9.88;4.63;;;;;;;15.05;100.00;100575.00;5026503;28;20054;-63
2023/07/20 06:09:29;;;;;;;8.30;4.25;;;;;;;14.96;100.00;100576.97;5026876;28;20057;-65
2023/07/20 06:11:56;;;;;;;7.55;2.70;;;;;;;15.09;100.00;100576.28;5024902;28;20054;-66
2023/07/20 06:14:23;;;;;;;6.50;5.10;;;;;;;15.17;100.00;100575.31;5026211;28;20413;-66
2023/07/20 06:16:50;;;;;;;8.13;3.80;;;;;;;15.37;100.00;100581.72;5025479;28;20073;-64
2023/07/20 06:19:16;;;;;;;8.77;4.15;;;;;;;15.33;100.00;100582.28;5025736;28;20046;-65
2023/07/20 06:21:44;;;;;;;7.75;4.15;;;;;;;15.36;100.00;100585.47;5028048;28;20100;-66
2023/07/20 06:24:11;;;;;;;9.10;3.30;;;;;;;15.29;100.00;100584.53;5027099;28;20046;-67
2023/07/20 06:26:39;;;;;;;6.97;3.63;;;;;;;15.38;100.00;100590.66;5025683;28;20038;-64
2023/07/20 06:29:06;;;;;;;12.48;4.07;;;;;;;15.28;100.00;100590.16;5026588;28;20049;-66
2023/07/20 06:31:34;;;;;;;7.10;4.03;;;;;;;15.40;100.00;100594.00;5038564;28;20509;-66
2023/07/20 06:34:01;;;;;;;8.77;5.10;;;;;;;15.41;100.00;100588.41;5046578;28;20056;-65
2023/07/20 06:36:28;;;;;;;8.77;3.20;;;;;;;15.69;100.00;100580.31;5047438;28;20064;-63
2023/07/20 06:38:55;;;;;;;7.30;4.13;;;;;;;15.84;100.00;100587.50;5047391;28;20049;-64
2023/07/20 06:41:24;;;;;;;7.13;3.40;;;;;;;15.94;100.00;100588.81;5046425;28;20049;-66
2023/07/20 06:43:58;;;;;;;5.97;3.63;;;;;;;15.93;100.00;100589.00;5045058;28;20049;-64
2023/07/20 06:46:28;;;;;;;7.23;3.47;;;;;;;15.87;100.00;100581.69;5045724;28;20557;-64
2023/07/20 06:48:54;;;;;;;10.45;3.75;;;;;;;15.61;100.00;100593.13;5044753;28;20050;-64
2023/07/20 06:51:25;;;;;;;9.48;2.63;;;;;;;15.56;100.00;100596.41;5044641;28;20057;-64
2023/07/20 06:53:52;;;;;;;10.60;2.90;;;;;;;15.79;100.00;100590.78;5045688;28;20072;-65
2023/07/20 06:56:20;;;;;;;4.35;2.10;;;;;;;15.88;100.00;100602.28;5045778;28;20045;-64
2023/07/20 06:58:51;;;;;;;8.17;2.57;;;;;;;15.88;100.00;100592.31;5045680;28;20045;-64
2023/07/20 07:01:18;;;;;;;11.23;2.38;;;;;;;16.03;100.00;100603.03;5046307;28;20041;-63
2023/07/20 07:03:45;;;;;;;5.38;1.95;;;;;;;16.06;100.00;100599.09;5046341;28;20049;-65
2023/07/20 07:06:12;;;;;;;4.60;2.40;;;;;;;16.08;100.00;100600.53;5045926;28;20048;-63
2023/07/20 07:08:40;;;;;;;5.53;1.92;;;;;;;15.84;100.00;100598.31;5045456;28;20084;-64
2023/07/20 07:11:06;;;;;;;5.40;1.70;;;;;;;15.97;100.00;100597.56;5046725;28;20402;-64
2023/07/20 07:13:33;;;;;;;7.85;2.47;;;;;;;16.13;100.00;100598.09;5047189;28;20075;-64
2023/07/20 07:15:59;;;;;;;5.80;1.75;;;;;;;16.14;100.00;100605.16;5046703;28;20489;-63
2023/07/20 07:18:26;;;;;;;3.42;1.63;;;;;;;16.01;100.00;100604.25;5046386;28;20466;-65
2023/07/20 07:20:54;;;;;;;2.45;1.67;;;;;;;16.28;100.00;100605.22;5050110;28;20050;-65
2023/07/20 07:23:21;;;;;;;3.85;1.38;;;;;;;16.68;100.00;100614.41;5049936;28;20049;-64
2023/07/20 07:25:48;;;;;;;4.88;1.30;;;;;;;16.79;100.00;100607.56;5049128;28;20045;-64
2023/07/20 07:28:14;;;;;;;2.50;1.10;;;;;;;16.86;100.00;100606.53;5050274;28;20049;-64
2023/07/20 07:30:41;;;;;;;5.53;1.13;;;;;;;17.25;100.00;100618.47;5045754;28;20049;-64
2023/07/20 07:33:09;;;;;;;2.95;0.90;;;;;;;17.02;100.00;100612.59;5030313;28;20426;-63
2023/07/20 07:35:36;;;;;;;2.90;1.25;;;;;;;17.43;100.00;100617.91;5030326;28;20049;-63
2023/07/20 07:38:03;;;;;;;3.83;1.30;;;;;;;17.77;100.00;100605.16;5030253;28;20066;-63
2023/07/20 07:40:49;;;;;;;1.95;0.80;;;;;;;18.09;100.00;100606.97;5031171;28;20064;-65
2023/07/20 07:43:17;;;;;;;2.25;1.00;;;;;;;18.31;100.00;100604.03;5031681;28;20046;-63
2023/07/20 07:45:43;;;;;;;3.20;0.95;;;;;;;18.91;100.00;100601.84;5031974;28;20033;-64
2023/07/20 07:48:14;;;;;;;3.03;0.80;;;;;;;19.07;100.00;100605.97;5032736;28;20045;-65
2023/07/20 07:50:40;;;;;;;2.95;0.80;;;;;;;18.78;100.00;100607.38;5031592;28;20057;-64
2023/07/20 07:53:08;;;;;;;4.68;0.88;;;;;;;18.86;100.00;100615.28;5031321;28;20041;-65
2023/07/20 07:55:35;;;;;;;2.92;0.70;;;;;;;18.91;100.00;100604.56;5031531;28;20046;-66
2023/07/20 07:58:02;;;;;;;1.83;0.80;;;;;;;19.05;100.00;100601.81;5031397;28;20050;-65
2023/07/20 08:00:31;;;;;;;4.15;0.80;;;;;;;18.69;100.00;100609.50;5030420;28;20042;-65
2023/07/20 08:02:58;;;;;;;3.35;0.75;;;;;;;18.57;100.00;100611.22;5031517;28;20056;-63
2023/07/20 08:05:26;;;;;;;1.55;0.68;;;;;;;18.47;100.00;100606.25;5031362;28;20050;-65
2023/07/20 08:07:52;;;;;;;5.88;0.85;;;;;;;18.24;100.00;100605.94;5029142;28;20064;-64
2023/07/20 08:10:19;;;;;;;3.20;0.60;;;;;;;18.02;100.00;100608.88;5030914;28;20050;-64
2023/07/20 08:12:46;;;;;;;1.52;0.60;;;;;;;17.77;100.00;100610.59;5032414;28;20132;-66
2023/07/20 08:15:14;;;;;;;1.48;0.65;;;;;;;17.95;100.00;100610.75;5031159;28;20041;-64
2023/07/20 08:17:43;;;;;;;1.63;0.80;;;;;;;17.98;100.00;100617.66;5031732;28;20049;-65
2023/07/20 08:20:13;;;;;;;1.10;0.60;;;;;;;17.97;100.00;100624.13;5031378;28;20046;-65
2023/07/20 08:22:39;;;;;;;2.47;0.50;;;;;;;18.24;100.00;100633.09;5030686;28;20050;-66
2023/07/20 08:25:06;;;;;;;2.25;0.50;;;;;;;18.20;100.00;100629.97;5030532;28;20057;-65
2023/07/20 08:27:35;;;;;;;3.28;0.75;;;;;;;17.81;100.00;100638.97;5030285;28;20046;-65
2023/07/20 08:30:02;;;;;;;4.05;0.63;;;;;;;17.67;100.00;100634.59;5030206;28;20050;-64
2023/07/20 08:32:28;;;;;;;1.67;0.68;;;;;;;17.45;100.00;100634.81;5009963;28;20046;-64
2023/07/20 08:34:55;;;;;;;5.05;0.90;;;;;;;17.54;100.00;100638.13;5011305;28;20057;-65
2023/07/20 08:37:22;;;;;;;5.43;0.85;;;;;;;17.57;100.00;100632.28;5010496;28;20043;-65
2023/07/20 08:39:49;;;;;;;4.82;0.95;;;;;;;17.50;100.00;100626.88;5011224;28;20050;-65
2023/07/20 08:42:16;;;;;;;1.95;0.68;;;;;;;18.13;100.00;100628.25;5011308;28;20042;-65
2023/07/20 08:44:44;;;;;;;2.03;0.65;;;;;;;18.71;100.00;100640.00;5011526;28;20042;-66
2023/07/20 08:47:13;;;;;;;5.18;0.73;;;;;;;18.94;100.00;100635.97;5011015;28;20064;-65
2023/07/20 08:49:41;;;;;;;1.30;0.50;;;;;;;19.51;94.32;100636.81;5010688;28;20073;-66
2023/07/20 08:52:07;;;;;;;2.33;1.00;;;;;;;19.78;85.74;100642.91;5011000;28;20108;-65
2023/07/20 08:54:35;;;;;;;1.85;0.60;;;;;;;20.41;78.20;100639.97;5011854;28;20042;-64
2023/07/20 08:57:03;;;;;;;3.08;0.57;;;;;;;20.05;78.84;100634.50;5010926;28;20081;-65
2023/07/20 08:59:32;;;;;;;1.95;0.40;;;;;;;20.02;78.06;100634.94;5010355;28;20062;-65
2023/07/20 09:02:00;;;;;;;2.72;0.50;;;;;;;20.38;73.48;100642.28;5010579;28;20109;-64
2023/07/20 09:04:27;;;;;;;0.28;0.20;;;;;;;20.35;73.85;100631.84;5010759;28;20046;-64
2023/07/20 09:06:53;;;;;;;0.25;0.20;;;;;;;19.83;76.23;100637.66;5009889;28;20073;-66
2023/07/20 09:09:20;;;;;;;0.75;0.40;;;;;;;20.12;75.59;100633.38;5009765;28;20047;-66
2023/07/20 09:11:49;;;;;;;0.80;0.40;;;;;;;20.84;69.95;100628.13;5010811;28;20049;-65
2023/07/20 09:14:16;;;;;;;1.13;0.68;;;;;;;20.56;70.16;100636.03;5010339;28;20045;-64
2023/07/20 09:16:52;;;;;;;1.10;0.50;;;;;;;19.91;75.29;100629.19;5010217;28;20449;-66
2023/07/20 09:19:20;;;;;;;2.58;0.40;;;;;;;20.02;74.06;100626.78;5010150;28;20105;-64
2023/07/20 09:21:48;;;;;;;1.25;0.40;;;;;;;20.18;72.45;100628.91;5010202;28;20046;-65
2023/07/20 09:24:17;;;;;;;1.40;1.00;;;;;;;19.89;72.94;100630.44;5010151;28;20058;-64
2023/07/20 09:26:48;;;;;;;3.15;0.73;;;;;;;19.99;74.59;100629.94;5008810;28;20487;-65
2023/07/20 09:29:18;;;;;;;1.60;0.60;;;;;;;19.33;75.65;100634.03;5009777;28;20069;-65
2023/07/20 09:31:59;;;;;;;3.63;2.25;;;;;;;19.54;75.47;100630.94;5038060;28;20037;-64
2023/07/20 09:34:31;;;;;;;4.57;0.50;;;;;;;19.93;73.35;100637.97;5050037;28;20058;-63
2023/07/20 09:37:24;;;;;;;1.92;0.55;;;;;;;20.20;71.10;100643.13;5007765;28;20265;-64
2023/07/20 09:39:52;;;;;;;0.85;0.40;;;;;;;19.94;70.36;100627.91;5007614;28;20122;-65
2023/07/20 09:42:24;;;;;;;3.78;0.70;;;;;;;19.60;73.29;100626.50;5006708;28;20046;-65
2023/07/20 09:44:56;;;;;;;3.85;0.60;;;;;;;19.51;75.65;100634.09;5007196;28;20050;-64
2023/07/20 09:47:24;;;;;;;1.88;0.60;;;;;;;19.23;78.66;100638.06;5007279;28;20046;-65
2023/07/20 09:49:59;;;;;;;2.70;0.50;;;;;;;18.89;80.10;100636.56;5006060;28;20078;-63
2023/07/20 09:52:29;;;;;;;1.98;0.52;;;;;;;18.69;81.63;100636.69;5008437;28;20050;-64
2023/07/20 09:54:59;;;;;;;7.53;0.40;;;;;;;18.38;83.29;100644.75;5020770;28;20056;-64
2023/07/20 09:57:26;;;;;;;1.73;0.43;;;;;;;18.08;87.36;100646.03;5050233;28;20060;-65
2023/07/20 09:59:53;;;;;;;4.70;0.95;;;;;;;17.96;90.39;100653.16;5049924;28;20049;-65
2023/07/20 10:02:33;;;;;;;2.58;0.85;;;;;;;17.83;93.01;100653.19;5049458;28;20049;-64
2023/07/20 10:05:04;;;;;;;2.90;0.43;;;;;;;17.62;97.80;100650.69;5049264;28;20076;-65
2023/07/20 10:07:31;;;;;;;0.75;0.40;;;;;;;17.42;100.00;100651.50;5049308;28;20108;-66
2023/07/20 10:10:02;;;;;;;2.78;0.80;;;;;;;17.31;100.00;100654.78;5028058;28;20050;-67
2023/07/20 10:12:30;;;;;;;1.73;0.70;;;;;;;17.28;100.00;100655.19;5029435;28;20045;-66
2023/07/20 10:15:08;;;;;;;2.53;0.70;;;;;;;17.28;100.00;100647.06;5029433;28;20049;-65
2023/07/20 10:17:40;;;;;;;1.88;0.68;;;;;;;17.49;100.00;100644.19;5028683;28;20076;-65
2023/07/20 10:20:09;;;;;;;1.88;0.82;;;;;;;18.14;100.00;100640.81;5029179;28;20133;-65
2023/07/20 10:22:36;;;;;;;1.58;0.82;;;;;;;18.46;96.42;100650.78;5029356;28;20047;-66
2023/07/20 10:25:08;;;;;;;1.95;0.63;;;;;;;18.94;90.94;100644.13;5028246;28;20046;-64
2023/07/20 10:27:35;;;;;;;1.13;0.60;;;;;;;18.71;91.53;100645.44;5030447;28;20056;-66
2023/07/20 10:30:03;;;;;;;2.60;0.70;;;;;;;18.67;92.52;100640.66;5028747;28;20438;-65
2023/07/20 10:32:32;;;;;;;2.05;0.82;;;;;;;18.23;98.15;100642.28;5009771;28;20125;-64
2023/07/20 10:34:59;;;;;;;3.85;0.70;;;;;;;18.03;100.00;100636.84;5009088;28;20050;-64
2023/07/20 10:37:52;;;;;;;2.08;1.00;;;;;;;18.02;100.00;100644.16;5009184;28;20053;-65
2023/07/20 10:40:28;;;;;;;1.92;0.90;;;;;;;17.92;100.00;100645.63;5009308;28;20050;-65
2023/07/20 10:42:59;;;;;;;2.60;0.75;;;;;;;17.83;100.00;100643.16;5009365;28;20039;-65
2023/07/20 10:45:41;;;;;;;4.85;0.60;;;;;;;17.61;100.00;100638.97;5009683;28;20555;-65
2023/07/20 10:48:15;;;;;;;3.28;0.57;;;;;;;17.63;100.00;100641.50;5009485;28;20046;-65
2023/07/20 10:50:43;;;;;;;3.25;0.82;;;;;;;17.94;100.00;100647.09;5008416;28;20042;-67
2023/07/20 10:53:12;;;;;;;1.80;0.85;;;;;;;18.30;100.00;100652.06;5008299;28;20057;-66
2023/07/20 10:55:40;;;;;;;1.88;0.75;;;;;;;18.29;100.00;100650.41;5013506;28;20046;-66
2023/07/20 10:58:12;;;;;;;1.90;0.90;;;;;;;18.15;100.00;100645.22;5012680;28;20050;-66
2023/07/20 11:01:01;;;;;;;3.03;0.80;;;;;;;17.83;100.00;100642.31;5013465;28;20050;-65
2023/07/20 11:03:35;;;;;;;4.28;1.05;;;;;;;17.71;100.00;100643.97;5013144;28;20057;-67
2023/07/20 11:06:26;;;;;;;5.35;0.80;;;;;;;17.81;100.00;100647.94;5013427;28;20046;-66
2023/07/20 11:09:14;;;;;;;1.33;0.88;;;;;;;17.63;100.00;100657.75;5012645;28;20484;-64
2023/07/20 11:11:47;;;;;;;1.88;0.93;;;;;;;17.92;100.00;100645.63;5013517;28;20046;-67
2023/07/20 11:14:22;;;;;;;4.35;1.10;;;;;;;17.88;100.00;100661.50;5012696;28;20049;-65
2023/07/20 11:16:52;;;;;;;0.80;0.60;;;;;;;17.52;100.00;100661.94;5013153;28;20042;-68
2023/07/20 11:19:25;;;;;;;4.93;1.03;;;;;;;17.51;100.00;100666.53;5012654;28;20073;-64
2023/07/20 11:21:56;;;;;;;3.45;1.25;;;;;;;17.42;100.00;100662.34;5026664;28;20085;-66
2023/07/20 11:24:28;;;;;;;4.43;1.10;;;;;;;17.30;100.00;100664.81;5013501;28;20046;-65
2023/07/20 11:26:55;;;;;;;2.92;0.70;;;;;;;17.23;100.00;100665.81;5012974;28;20077;-64